Time;durP1;ratioP1;P1;durP2;ratioP2;P2;SDS_P1;SDS_P2;PMS_P1;PMS_P2;Temp;Humidity;BMP_temperature;BMP_pressure;BME280_temperature;BME280_humidity;BME280_pressure;Samples;Min_cycle;Max_cycle;Signal;HPM_P1;HPM_P2
2023/03/01 00:01:02;;;;;;;22.05;15.77;;;;;;;-0.89;100.00;103072.31;4877886;29;20265;-49
2023/03/01 00:03:27;;;;;;;20.88;14.57;;;;;;;-0.82;100.00;103074.38;4877523;29;20200;-47
2023/03/01 00:05:53;;;;;;;20.73;16.15;;;;;;;-0.84;100.00;103073.41;4878088;29;20177;-46
2023/03/01 00:08:18;;;;;;;20.58;14.50;;;;;;;-0.77;100.00;103067.56;4875883;29;20843;-47
2023/03/01 00:10:44;;;;;;;24.25;15.80;;;;;;;-0.82;100.00;103074.38;4877261;29;20634;-47
2023/03/01 00:13:09;;;;;;;23.98;16.20;;;;;;;-0.75;100.00;103071.16;4877497;29;20181;-45
2023/03/01 00:15:38;;;;;;;23.13;16.25;;;;;;;-0.78;100.00;103067.53;4877707;29;20193;-47
2023/03/01 00:18:04;;;;;;;22.40;16.23;;;;;;;-0.81;100.00;103067.38;4877571;29;20177;-46
2023/03/01 00:20:29;;;;;;;23.65;17.83;;;;;;;-0.79;100.00;103063.06;4877800;29;20306;-47
2023/03/01 00:22:55;;;;;;;23.08;17.02;;;;;;;-0.96;100.00;103068.50;4877155;29;20244;-46
2023/03/01 00:25:20;;;;;;;23.60;16.30;;;;;;;-1.05;100.00;103071.59;4877736;29;20197;-46
2023/03/01 00:27:48;;;;;;;20.35;15.25;;;;;;;-1.02;100.00;103065.56;4877061;29;20212;-48
2023/03/01 00:30:14;;;;;;;26.33;15.90;;;;;;;-1.05;100.00;103068.06;4875805;29;20229;-46
2023/03/01 00:32:40;;;;;;;26.85;17.10;;;;;;;-1.12;100.00;103071.25;4877070;29;20626;-46
2023/03/01 00:35:05;;;;;;;21.65;15.93;;;;;;;-1.07;100.00;103082.91;4877058;29;20189;-47
2023/03/01 00:37:31;;;;;;;23.75;15.63;;;;;;;-0.98;100.00;103067.53;4875585;29;20205;-47
2023/03/01 00:39:56;;;;;;;20.80;15.30;;;;;;;-0.94;100.00;103073.81;4877446;29;20355;-47
2023/03/01 00:42:23;;;;;;;21.33;15.18;;;;;;;-0.92;100.00;103074.78;4865540;29;20225;-43
2023/03/01 00:44:48;;;;;;;23.88;15.68;;;;;;;-0.88;100.00;103077.59;4877285;29;20219;-46
2023/03/01 00:47:14;;;;;;;19.70;14.40;;;;;;;-0.89;100.00;103081.09;4877268;29;20223;-47
2023/03/01 00:49:40;;;;;;;23.95;16.73;;;;;;;-0.96;100.00;103068.50;4877115;29;20686;-47
2023/03/01 00:52:05;;;;;;;21.80;15.70;;;;;;;-0.91;100.00;103071.31;4874423;29;20216;-48
2023/03/01 00:54:31;;;;;;;21.95;16.02;;;;;;;-0.94;100.00;103074.72;4877316;29;20193;-49
2023/03/01 00:56:56;;;;;;;21.02;15.85;;;;;;;-0.89;100.00;103073.19;4876858;29;20204;-46
2023/03/01 00:59:22;;;;;;;21.30;15.05;;;;;;;-0.92;100.00;103065.16;4876931;29;20284;-47
2023/03/01 01:01:47;;;;;;;25.35;15.20;;;;;;;-0.92;100.00;103073.06;4876483;29;20304;-46
2023/03/01 01:04:14;;;;;;;21.65;15.27;;;;;;;-0.91;100.00;103071.31;4875867;29;20203;-49
2023/03/01 01:06:43;;;;;;;20.80;16.50;;;;;;;-1.05;100.00;103065.41;4876874;29;20288;-46
2023/03/01 01:09:16;;;;;;;22.65;16.17;;;;;;;-1.10;100.00;103054.69;4851265;29;20291;-47
2023/03/01 01:11:47;;;;;;;20.23;15.00;;;;;;;-1.11;100.00;103045.00;4876445;29;20255;-46
2023/03/01 01:14:13;;;;;;;20.13;15.55;;;;;;;-1.12;100.00;103047.56;4876716;29;20197;-47
2023/03/01 01:16:39;;;;;;;20.02;15.10;;;;;;;-1.08;100.00;103046.88;4864318;29;20613;-48
2023/03/01 01:19:05;;;;;;;24.38;14.82;;;;;;;-1.09;100.00;103043.34;4876856;29;20208;-47
2023/03/01 01:21:31;;;;;;;20.70;15.07;;;;;;;-1.13;100.00;103036.16;4861453;29;20206;-46
2023/03/01 01:23:57;;;;;;;22.75;16.10;;;;;;;-1.11;100.00;103038.88;4874688;29;20192;-46
2023/03/01 01:26:32;;;;;;;23.92;16.60;;;;;;;-1.22;100.00;103034.81;4876824;29;20185;-47
2023/03/01 01:28:59;;;;;;;23.30;15.70;;;;;;;-1.17;100.00;103044.72;4876221;29;20197;-46
2023/03/01 01:31:26;;;;;;;23.33;16.20;;;;;;;-1.23;100.00;103030.41;4875637;29;20203;-47
2023/03/01 01:33:52;;;;;;;21.75;15.00;;;;;;;-1.26;100.00;103039.94;4876368;29;20260;-46
2023/03/01 01:36:18;;;;;;;27.55;17.92;;;;;;;-1.28;100.00;103035.44;4876376;29;20181;-46
2023/03/01 01:38:44;;;;;;;24.92;18.05;;;;;;;-1.32;100.00;103036.13;4876457;29;20181;-46
2023/03/01 01:41:11;;;;;;;23.83;16.85;;;;;;;-1.36;100.00;103019.31;4876058;29;20213;-48
2023/03/01 01:43:46;;;;;;;25.05;17.80;;;;;;;-1.45;100.00;103027.66;5021501;28;20564;-48
2023/03/01 01:46:33;;;;;;;25.73;16.92;;;;;;;-1.36;100.00;103028.94;5013881;28;20188;-47
2023/03/01 01:49:07;;;;;;;22.98;16.70;;;;;;;-1.36;100.00;103024.56;5023034;28;20186;-48
2023/03/01 01:51:40;;;;;;;18.63;14.73;;;;;;;-1.30;100.00;103026.59;5018323;28;20204;-47
2023/03/01 01:54:13;;;;;;;22.08;15.40;;;;;;;-1.27;100.00;103026.72;5038528;28;20261;-48
2023/03/01 01:56:43;;;;;;;21.60;15.77;;;;;;;-1.29;100.00;103025.75;5039184;28;20187;-44
2023/03/01 01:59:10;;;;;;;24.05;17.40;;;;;;;-1.29;100.00;103025.75;5045841;28;20198;-47
2023/03/01 02:01:36;;;;;;;23.90;16.83;;;;;;;-1.32;100.00;103029.13;5045602;28;20789;-45
2023/03/01 02:04:02;;;;;;;21.77;15.25;;;;;;;-1.26;100.00;103016.28;5036634;28;20258;-48
2023/03/01 02:06:39;;;;;;;24.65;17.15;;;;;;;-1.37;100.00;103019.25;5045366;28;20666;-46
2023/03/01 02:09:11;;;;;;;21.15;15.50;;;;;;;-1.27;100.00;103008.31;5028990;28;20273;-47
2023/03/01 02:11:37;;;;;;;23.83;16.75;;;;;;;-1.29;100.00;103016.16;5037865;28;20283;-48
2023/03/01 02:14:03;;;;;;;21.65;15.73;;;;;;;-1.22;100.00;103016.41;5040713;28;20184;-47
2023/03/01 02:16:30;;;;;;;23.77;16.48;;;;;;;-1.17;100.00;103009.66;5045438;28;20623;-47
2023/03/01 02:18:58;;;;;;;25.80;16.70;;;;;;;-1.16;100.00;102995.66;5041522;28;20719;-45
2023/03/01 02:21:32;;;;;;;23.35;16.58;;;;;;;-1.17;100.00;103002.66;5043085;28;20203;-47
2023/03/01 02:24:13;;;;;;;23.55;17.02;;;;;;;-1.13;100.00;103009.84;5025004;28;20207;-47
2023/03/01 02:26:47;;;;;;;23.42;17.38;;;;;;;-1.16;100.00;103004.47;5026745;28;20173;-46
2023/03/01 02:29:12;;;;;;;22.30;16.58;;;;;;;-1.09;100.00;103008.28;5025137;28;20167;-46
2023/03/01 02:31:41;;;;;;;24.20;16.48;;;;;;;-1.10;100.00;103001.19;5044659;28;20503;-46
2023/03/01 02:34:10;;;;;;;23.60;16.63;;;;;;;-1.06;100.00;103005.75;5043906;28;20179;-46
2023/03/01 02:36:39;;;;;;;26.17;16.10;;;;;;;-1.04;100.00;102989.19;5037522;28;20172;-45
2023/03/01 02:39:14;;;;;;;23.73;15.80;;;;;;;-1.00;100.00;103003.41;5046402;28;20179;-51
2023/03/01 02:41:44;;;;;;;30.13;17.60;;;;;;;-0.94;100.00;102994.88;5040823;28;20207;-47
2023/03/01 02:44:09;;;;;;;22.13;15.90;;;;;;;-0.94;100.00;102987.91;5046025;28;20611;-45
2023/03/01 02:46:43;;;;;;;42.60;17.70;;;;;;;-1.02;100.00;102994.53;5025138;28;20202;-46
2023/03/01 02:49:38;;;;;;;60.42;17.33;;;;;;;-0.98;100.00;102980.69;5026199;28;20168;-46
2023/03/01 02:52:33;;;;;;;36.90;15.52;;;;;;;-1.03;100.00;102979.56;5032682;28;20196;-46
2023/03/01 02:55:04;;;;;;;27.92;15.73;;;;;;;-1.02;100.00;102976.13;5012714;28;20647;-45
2023/03/01 02:57:32;;;;;;;49.10;16.13;;;;;;;-0.97;100.00;102984.22;5018087;28;20184;-48
2023/03/01 03:00:06;;;;;;;59.67;17.27;;;;;;;-1.11;100.00;102976.63;5011665;28;20192;-50
2023/03/01 03:02:37;;;;;;;104.15;18.70;;;;;;;-1.07;100.00;102981.19;5019003;28;20234;-45
2023/03/01 03:05:31;;;;;;;25.65;15.75;;;;;;;-1.00;100.00;102974.47;5022661;28;20659;-47
2023/03/01 03:07:59;;;;;;;19.98;14.75;;;;;;;-0.95;100.00;102978.19;5011603;28;20195;-46
2023/03/01 03:10:27;;;;;;;40.38;16.40;;;;;;;-1.13;100.00;102982.66;5011125;28;20161;-45
2023/03/01 03:12:59;;;;;;;31.45;16.48;;;;;;;-1.08;100.00;102981.13;5020700;28;20366;-46
2023/03/01 03:15:26;;;;;;;23.52;15.18;;;;;;;-1.12;100.00;102980.06;5031181;28;20250;-49
2023/03/01 03:17:52;;;;;;;24.98;15.48;;;;;;;-1.10;100.00;102977.50;5032120;28;20164;-46
2023/03/01 03:20:20;;;;;;;37.90;16.75;;;;;;;-1.16;100.00;102977.22;5032428;28;20184;-45
2023/03/01 03:22:51;;;;;;;30.55;15.15;;;;;;;-1.11;100.00;102981.00;5032007;28;20261;-44
2023/03/01 03:25:18;;;;;;;18.10;14.38;;;;;;;-1.12;100.00;102982.69;5020986;28;20193;-45
2023/03/01 03:27:45;;;;;;;22.60;15.15;;;;;;;-1.13;100.00;102962.50;5015417;28;20259;-47
2023/03/01 03:30:18;;;;;;;28.27;14.85;;;;;;;-1.21;100.00;102970.88;5013757;28;20176;-44
2023/03/01 03:32:52;;;;;;;27.80;16.25;;;;;;;-1.21;100.00;102957.72;5032177;28;20245;-48
2023/03/01 03:35:28;;;;;;;59.83;16.85;;;;;;;-1.39;100.00;102957.81;5024102;28;20168;-44
2023/03/01 03:38:03;;;;;;;38.58;16.35;;;;;;;-1.28;100.00;102961.81;5026375;28;20183;-49
2023/03/01 03:40:30;;;;;;;28.20;15.50;;;;;;;-1.25;100.00;102956.69;5032012;28;20156;-45
2023/03/01 03:42:56;;;;;;;19.40;15.77;;;;;;;-1.28;100.00;102967.06;5011375;23;20260;-49
2023/03/01 03:45:21;;;;;;;17.77;13.55;;;;;;;-1.21;100.00;102960.38;4992470;28;20174;-43
2023/03/01 03:47:47;;;;;;;49.47;16.08;;;;;;;-1.25;100.00;102954.97;4992718;28;20173;-43
2023/03/01 03:50:16;;;;;;;99.95;18.48;;;;;;;-1.46;100.00;102957.53;4992889;28;20180;-46
2023/03/01 03:52:41;;;;;;;23.30;15.02;;;;;;;-1.33;100.00;102951.09;4992790;28;20236;-45
2023/03/01 03:55:12;;;;;;;19.42;14.95;;;;;;;-1.32;100.00;102945.00;4992733;28;20608;-43
2023/03/01 03:57:38;;;;;;;44.97;16.75;;;;;;;-1.35;100.00;102958.00;4991611;28;20178;-43
2023/03/01 04:00:05;;;;;;;26.63;15.75;;;;;;;-1.26;100.00;102952.28;4992807;28;20184;-42
2023/03/01 04:02:38;;;;;;;31.25;17.23;;;;;;;-1.31;100.00;102946.81;4992449;28;20260;-45
2023/03/01 04:05:04;;;;;;;34.95;16.23;;;;;;;-1.27;100.00;102943.50;4990089;28;20636;-44
2023/03/01 04:07:29;;;;;;;28.23;16.33;;;;;;;-1.34;100.00;102956.28;4990736;28;20219;-46
2023/03/01 04:09:55;;;;;;;57.90;17.38;;;;;;;-1.41;100.00;102948.97;4992700;28;20182;-44
2023/03/01 04:12:22;;;;;;;42.20;16.35;;;;;;;-1.37;100.00;102945.63;4991557;28;20200;-42
2023/03/01 04:14:48;;;;;;;33.28;17.35;;;;;;;-1.41;100.00;102936.69;4991685;28;20176;-45
2023/03/01 04:17:14;;;;;;;19.85;15.23;;;;;;;-1.33;100.00;102944.94;4992196;28;20166;-44
2023/03/01 04:19:39;;;;;;;19.92;15.73;;;;;;;-1.34;100.00;102945.75;4992299;28;20185;-43
2023/03/01 04:22:09;;;;;;;37.50;16.58;;;;;;;-1.48;100.00;102948.66;4991748;28;20200;-43
2023/03/01 04:24:37;;;;;;;22.85;14.52;;;;;;;-1.31;100.00;102952.06;4992151;28;20236;-46
2023/03/01 04:27:03;;;;;;;18.42;13.82;;;;;;;-1.28;100.00;102946.94;4992346;28;20184;-43
2023/03/01 04:29:29;;;;;;;29.25;15.73;;;;;;;-1.38;100.00;102951.72;4991685;28;20189;-45
2023/03/01 04:31:54;;;;;;;70.85;16.60;;;;;;;-1.52;100.00;102951.09;4991808;28;20200;-47
2023/03/01 04:34:20;;;;;;;34.65;14.27;;;;;;;-1.49;100.00;102945.97;4990558;28;20173;-42
2023/03/01 04:36:45;;;;;;;38.55;16.48;;;;;;;-1.48;100.00;102947.78;4991851;28;20166;-42
2023/03/01 04:39:14;;;;;;;25.98;16.50;;;;;;;-1.48;100.00;102946.03;4994148;28;20212;-46
2023/03/01 04:41:40;;;;;;;19.90;15.02;;;;;;;-1.53;100.00;102950.19;4993501;28;20623;-43
2023/03/01 04:44:06;;;;;;;36.10;15.60;;;;;;;-1.52;100.00;102957.25;4991958;28;20191;-42
2023/03/01 04:46:32;;;;;;;36.03;17.08;;;;;;;-1.51;100.00;102955.50;4992012;28;20655;-44
2023/03/01 04:48:57;;;;;;;30.23;16.02;;;;;;;-1.46;100.00;102964.53;4991524;28;20170;-45
2023/03/01 04:51:23;;;;;;;66.38;16.70;;;;;;;-1.49;100.00;102962.66;4991659;28;20625;-47
2023/03/01 04:53:49;;;;;;;20.23;14.38;;;;;;;-1.40;100.00;102966.50;4991452;28;20173;-42
2023/03/01 04:56:15;;;;;;;39.47;15.63;;;;;;;-1.56;100.00;102959.66;4991723;28;20179;-42
2023/03/01 04:58:41;;;;;;;56.28;15.98;;;;;;;-1.56;100.00;102963.19;4991679;28;20252;-42
2023/03/01 05:01:19;;;;;;;42.38;15.80;;;;;;;-1.68;100.00;102962.63;4991132;28;20240;-45
2023/03/01 05:03:50;;;;;;;43.30;15.07;;;;;;;-1.65;100.00;102954.88;4990157;28;20209;-43
2023/03/01 05:06:16;;;;;;;24.83;14.75;;;;;;;-1.53;100.00;102965.97;4991471;28;20222;-46
2023/03/01 05:08:43;;;;;;;23.63;15.40;;;;;;;-1.55;100.00;102956.19;4991163;28;20185;-42
2023/03/01 05:11:10;;;;;;;19.85;14.35;;;;;;;-1.47;100.00;102955.72;4991056;28;20189;-44
2023/03/01 05:13:37;;;;;;;22.23;15.32;;;;;;;-1.48;100.00;102969.69;4990917;28;20538;-45
2023/03/01 05:16:03;;;;;;;25.50;17.25;;;;;;;-1.50;100.00;102955.59;4990959;28;20172;-46
2023/03/01 05:18:31;;;;;;;33.55;17.02;;;;;;;-1.47;100.00;102960.09;4990993;28;20260;-47
2023/03/01 05:21:09;;;;;;;22.90;15.80;;;;;;;-1.43;100.00;102954.13;4990965;28;20581;-44
2023/03/01 05:23:34;;;;;;;33.05;16.35;;;;;;;-1.53;100.00;102954.53;4991311;28;20193;-43
2023/03/01 05:26:03;;;;;;;23.52;16.17;;;;;;;-1.49;100.00;102954.78;4991368;28;20174;-42
2023/03/01 05:28:30;;;;;;;89.28;19.55;;;;;;;-1.59;100.00;102956.91;4990680;28;20256;-44
2023/03/01 05:30:56;;;;;;;22.80;14.40;;;;;;;-1.44;100.00;102960.25;4991132;28;20240;-45
2023/03/01 05:33:22;;;;;;;39.47;16.65;;;;;;;-1.59;100.00;102954.28;4990801;28;20391;-42
2023/03/01 05:35:48;;;;;;;24.55;17.20;;;;;;;-1.55;100.00;102959.75;4990954;28;20628;-45
2023/03/01 05:38:15;;;;;;;24.00;15.32;;;;;;;-1.48;100.00;102967.06;4991015;28;20173;-43
2023/03/01 05:40:45;;;;;;;40.83;16.50;;;;;;;-1.50;100.00;102960.84;4989490;28;20252;-43
2023/03/01 05:43:13;;;;;;;22.63;15.18;;;;;;;-1.38;100.00;102959.59;4990797;28;20205;-42
2023/03/01 05:45:40;;;;;;;22.73;15.00;;;;;;;-1.36;100.00;102961.47;4991409;28;20240;-42
2023/03/01 05:48:08;;;;;;;30.33;17.23;;;;;;;-1.53;100.00;102947.56;4990684;28;20652;-44
2023/03/01 05:50:37;;;;;;;24.30;16.05;;;;;;;-1.41;100.00;102959.47;4990637;28;20161;-43
2023/03/01 05:53:20;;;;;;;20.67;14.50;;;;;;;-1.50;100.00;102965.22;4991231;28;20615;-43
2023/03/01 05:55:47;;;;;;;19.92;14.07;;;;;;;-1.42;100.00;102960.28;4990970;28;20253;-45
2023/03/01 05:58:15;;;;;;;20.98;14.30;;;;;;;-1.46;100.00;102961.91;4989688;28;20192;-46
2023/03/01 06:00:43;;;;;;;20.98;15.05;;;;;;;-1.50;100.00;102962.59;4990622;28;20176;-44
2023/03/01 06:03:11;;;;;;;30.67;16.23;;;;;;;-1.53;100.00;102957.16;4989377;28;20197;-41
2023/03/01 06:05:39;;;;;;;27.85;13.85;;;;;;;-1.74;100.00;102962.34;4990853;28;20268;-42
2023/03/01 06:08:04;;;;;;;25.67;12.95;;;;;;;-1.63;100.00;102954.97;4990500;28;20170;-46
2023/03/01 06:10:30;;;;;;;50.08;14.10;;;;;;;-1.85;100.00;102959.22;4990425;28;20167;-44
2023/03/01 06:12:56;;;;;;;29.33;13.95;;;;;;;-1.93;100.00;102958.84;4989176;28;20232;-43
2023/03/01 06:15:22;;;;;;;36.92;13.90;;;;;;;-1.90;100.00;102958.13;4988884;28;20204;-42
2023/03/01 06:17:48;;;;;;;17.88;12.95;;;;;;;-1.80;100.00;102962.94;4990317;28;20280;-43
2023/03/01 06:20:19;;;;;;;196.88;18.08;;;;;;;-1.98;100.00;102944.59;4990201;28;20180;-43
2023/03/01 06:22:46;;;;;;;17.85;12.75;;;;;;;-1.76;100.00;102943.88;4990151;28;20204;-46
2023/03/01 06:25:14;;;;;;;20.50;14.85;;;;;;;-1.75;100.00;102948.31;4990655;28;20178;-43
2023/03/01 06:27:40;;;;;;;29.65;13.93;;;;;;;-1.79;100.00;102954.25;4990030;28;20174;-44
2023/03/01 06:30:07;;;;;;;31.38;13.50;;;;;;;-1.88;100.00;102952.09;4993278;28;20154;-43
2023/03/01 06:32:33;;;;;;;20.80;13.60;;;;;;;-1.78;100.00;102949.91;4994250;28;20500;-43
2023/03/01 06:34:58;;;;;;;19.73;12.88;;;;;;;-1.84;100.00;102939.09;4993807;28;20185;-44
2023/03/01 06:37:25;;;;;;;26.63;13.15;;;;;;;-1.79;100.00;102943.75;4993632;28;20618;-45
2023/03/01 06:39:50;;;;;;;26.27;13.45;;;;;;;-1.77;100.00;102933.28;4993807;28;20169;-45
2023/03/01 06:42:16;;;;;;;47.47;16.13;;;;;;;-1.84;100.00;102945.25;4993374;28;20211;-44
2023/03/01 06:44:42;;;;;;;19.10;13.10;;;;;;;-1.78;100.00;102940.28;4992674;28;20592;-47
2023/03/01 06:47:07;;;;;;;16.33;12.63;;;;;;;-1.71;100.00;102947.59;4993514;28;20180;-44
2023/03/01 06:49:33;;;;;;;22.45;12.93;;;;;;;-1.66;100.00;102937.34;4993875;28;20193;-43
2023/03/01 06:51:58;;;;;;;18.92;13.02;;;;;;;-1.56;100.00;102946.53;4993311;28;20221;-43
2023/03/01 06:54:24;;;;;;;35.17;13.23;;;;;;;-1.66;100.00;102938.22;4993472;28;20204;-47
2023/03/01 06:56:50;;;;;;;34.88;13.20;;;;;;;-1.82;100.00;102943.59;4993659;28;20184;-43
2023/03/01 06:59:17;;;;;;;17.05;11.77;;;;;;;-1.66;100.00;102943.47;4993300;28;20181;-43
2023/03/01 07:01:43;;;;;;;12.88;10.52;;;;;;;-1.51;100.00;102940.66;4993686;28;20415;-44
2023/03/01 07:04:09;;;;;;;19.33;12.27;;;;;;;-1.54;100.00;102950.13;4993652;28;20225;-48
2023/03/01 07:06:34;;;;;;;21.02;12.48;;;;;;;-1.60;100.00;102937.59;4993160;28;20573;-43
2023/03/01 07:09:00;;;;;;;17.52;12.55;;;;;;;-1.50;100.00;102949.44;4993317;28;20289;-47
2023/03/01 07:11:25;;;;;;;16.48;12.00;;;;;;;-1.41;100.00;102943.69;4991937;28;20197;-43
2023/03/01 07:13:51;;;;;;;15.13;11.95;;;;;;;-1.28;100.00;102949.56;4993257;28;20542;-49
2023/03/01 07:16:16;;;;;;;20.45;13.68;;;;;;;-1.30;100.00;102952.97;4993502;28;20304;-42
2023/03/01 07:18:42;;;;;;;18.05;13.60;;;;;;;-1.35;100.00;102950.13;4993318;28;20668;-45
2023/03/01 07:21:10;;;;;;;20.30;12.80;;;;;;;-1.29;100.00;102949.47;4993039;28;20189;-45
2023/03/01 07:23:36;;;;;;;19.10;12.57;;;;;;;-1.42;100.00;102958.59;4993409;28;20182;-42
2023/03/01 07:26:02;;;;;;;16.98;12.23;;;;;;;-1.38;100.00;102962.22;4993026;28;20178;-45
2023/03/01 07:28:28;;;;;;;14.82;11.48;;;;;;;-1.40;100.00;102956.91;4992173;28;20174;-45
2023/03/01 07:30:54;;;;;;;22.67;13.00;;;;;;;-1.33;100.00;102971.25;4993285;28;20283;-43
2023/03/01 07:33:21;;;;;;;22.52;12.60;;;;;;;-1.25;100.00;102965.50;4992899;28;20591;-43
2023/03/01 07:35:46;;;;;;;16.73;11.95;;;;;;;-1.14;100.00;102965.06;4993153;28;20188;-45
2023/03/01 07:38:12;;;;;;;22.17;13.57;;;;;;;-1.18;100.00;102973.63;4993003;28;20177;-49
2023/03/01 07:40:37;;;;;;;81.40;14.32;;;;;;;-1.31;100.00;102981.00;4992843;28;20177;-45
2023/03/01 07:43:03;;;;;;;23.63;14.10;;;;;;;-1.25;100.00;102982.97;4992041;28;20690;-44
2023/03/01 07:45:28;;;;;;;21.90;14.15;;;;;;;-1.23;100.00;102990.94;4992494;28;20213;-47
2023/03/01 07:47:55;;;;;;;19.77;13.32;;;;;;;-1.13;100.00;102974.75;4992515;28;20175;-47
2023/03/01 07:50:21;;;;;;;19.48;13.80;;;;;;;-1.07;100.00;102978.56;4992780;28;20212;-44
2023/03/01 07:52:48;;;;;;;18.42;13.40;;;;;;;-1.15;100.00;102987.84;4976264;28;20235;-46
2023/03/01 07:55:15;;;;;;;20.15;13.02;;;;;;;-1.04;100.00;102993.56;4975559;28;20216;-43
2023/03/01 07:57:40;;;;;;;21.50;12.70;;;;;;;-1.09;100.00;102992.47;4984447;28;20186;-41
2023/03/01 08:00:07;;;;;;;13.75;10.75;;;;;;;-0.97;100.00;102982.47;4990170;28;20240;-43
2023/03/01 08:02:37;;;;;;;12.45;9.15;;;;;;;-0.95;100.00;102982.56;4972943;28;20225;-44
2023/03/01 08:05:03;;;;;;;13.65;10.50;;;;;;;-0.93;100.00;102976.53;4983973;28;20614;-47
2023/03/01 08:07:29;;;;;;;13.55;9.77;;;;;;;-1.00;100.00;102984.09;4976701;28;20311;-45
2023/03/01 08:09:54;;;;;;;14.38;10.13;;;;;;;-1.08;100.00;102987.25;4978736;28;20178;-43
2023/03/01 08:12:20;;;;;;;11.80;8.95;;;;;;;-1.01;100.00;102996.31;4980699;28;20232;-42
2023/03/01 08:14:45;;;;;;;11.80;9.10;;;;;;;-0.97;100.00;102993.00;4982818;28;20177;-46
2023/03/01 08:17:14;;;;;;;13.18;9.20;;;;;;;-1.04;100.00;102993.56;4990940;28;20191;-44
2023/03/01 08:19:39;;;;;;;15.70;9.07;;;;;;;-1.01;100.00;102998.06;4986862;28;20178;-48
2023/03/01 08:22:05;;;;;;;10.48;8.80;;;;;;;-1.18;100.00;102999.94;4989096;28;20483;-43
2023/03/01 08:24:31;;;;;;;13.13;10.32;;;;;;;-1.42;100.00;102995.38;4987757;28;20228;-45
2023/03/01 08:26:56;;;;;;;12.07;9.63;;;;;;;-1.13;100.00;103004.59;4988600;28;20604;-46
2023/03/01 08:29:22;;;;;;;10.63;8.82;;;;;;;-1.09;100.00;103000.38;4983718;28;20174;-43
2023/03/01 08:31:48;;;;;;;13.82;9.90;;;;;;;-1.02;100.00;102997.19;4992689;28;20213;-44
2023/03/01 08:34:16;;;;;;;12.90;10.43;;;;;;;-1.08;100.00;102991.63;4992132;28;20223;-41
2023/03/01 08:36:45;;;;;;;17.33;10.85;;;;;;;-0.89;100.00;102996.88;4986978;28;20214;-44
2023/03/01 08:39:14;;;;;;;17.80;11.63;;;;;;;-0.79;100.00;102977.09;4980373;28;20656;-44
2023/03/01 08:41:41;;;;;;;18.77;12.50;;;;;;;-0.85;100.00;102983.03;4990052;28;20222;-44
2023/03/01 08:44:07;;;;;;;19.02;13.40;;;;;;;-0.96;100.00;102992.19;4977254;28;20395;-44
2023/03/01 08:46:36;;;;;;;25.92;12.52;;;;;;;-1.08;100.00;102989.00;4982780;28;20201;-44
2023/03/01 08:49:07;;;;;;;19.30;11.88;;;;;;;-1.30;100.00;102992.41;4990395;28;20196;-44
2023/03/01 08:51:36;;;;;;;23.27;11.57;;;;;;;-1.41;100.00;102988.41;4974490;28;20410;-45
2023/03/01 08:54:06;;;;;;;21.75;11.30;;;;;;;-1.47;100.00;102992.50;4985248;28;20244;-44
2023/03/01 08:56:33;;;;;;;22.35;11.07;;;;;;;-1.47;100.00;102991.63;4974654;28;20664;-42
2023/03/01 08:58:58;;;;;;;21.20;11.50;;;;;;;-1.44;100.00;102981.28;4980597;28;20170;-44
2023/03/01 09:01:24;;;;;;;17.70;10.57;;;;;;;-1.30;100.00;102990.66;4986505;28;20210;-43
2023/03/01 09:03:49;;;;;;;20.58;11.50;;;;;;;-1.27;100.00;102988.19;4985724;28;20271;-45
2023/03/01 09:06:15;;;;;;;19.58;12.73;;;;;;;-1.18;100.00;102992.97;4986801;28;20228;-43
2023/03/01 09:08:43;;;;;;;21.08;13.80;;;;;;;-1.05;100.00;103003.22;4978585;28;20185;-42
2023/03/01 09:11:11;;;;;;;18.67;13.02;;;;;;;-0.99;100.00;103012.19;4975711;28;20556;-42
2023/03/01 09:13:36;;;;;;;39.88;15.05;;;;;;;-1.25;100.00;103002.31;4985869;28;20639;-44
2023/03/01 09:16:05;;;;;;;41.80;13.38;;;;;;;-1.33;100.00;103003.69;4971861;28;20256;-44
2023/03/01 09:18:31;;;;;;;49.75;14.85;;;;;;;-1.20;100.00;103007.78;4981308;28;20224;-44
2023/03/01 09:21:08;;;;;;;29.10;15.00;;;;;;;-0.98;100.00;102999.13;4989344;28;20227;-43
2023/03/01 09:23:45;;;;;;;19.48;13.20;;;;;;;-0.92;100.00;103004.66;4989314;28;20205;-45
2023/03/01 09:26:13;;;;;;;46.63;14.63;;;;;;;-0.85;100.00;103001.44;4987498;28;20228;-50
2023/03/01 09:28:40;;;;;;;49.10;15.30;;;;;;;-0.85;100.00;103000.56;4980886;28;20181;-49
2023/03/01 09:31:06;;;;;;;22.25;15.15;;;;;;;-0.86;100.00;103001.38;4990290;28;20593;-44
2023/03/01 09:33:33;;;;;;;26.85;14.38;;;;;;;-0.71;100.00;103009.94;4983305;28;20189;-44
2023/03/01 09:36:00;;;;;;;86.97;18.80;;;;;;;-1.23;100.00;103001.47;4988299;28;20763;-44
2023/03/01 09:38:26;;;;;;;34.08;15.90;;;;;;;-0.99;100.00;103009.56;4984875;28;20176;-44
2023/03/01 09:40:52;;;;;;;50.90;17.33;;;;;;;-0.91;100.00;103002.91;5005719;28;20193;-43
2023/03/01 09:43:44;;;;;;;26.33;17.08;;;;;;;-0.79;100.00;102994.63;4982905;23;20601;-46
2023/03/01 09:46:16;;;;;;;19.45;14.40;;;;;;;-0.59;100.00;102999.06;4967826;28;20237;-47
2023/03/01 09:48:46;;;;;;;19.63;14.20;;;;;;;-0.62;100.00;103006.78;4960125;28;20259;-46
2023/03/01 09:51:33;;;;;;;38.38;17.23;;;;;;;-0.92;100.00;103006.34;4963366;28;20253;-46
2023/03/01 09:54:00;;;;;;;28.60;17.40;;;;;;;-1.05;100.00;103013.72;4962766;28;20178;-48
2023/03/01 09:56:35;;;;;;;26.20;17.80;;;;;;;-0.66;100.00;103010.13;4958510;28;20191;-45
2023/03/01 09:59:22;;;;;;;28.48;18.98;;;;;;;-0.54;100.00;103004.50;4959662;28;20178;-46
2023/03/01 10:01:59;;;;;;;27.85;18.30;;;;;;;-0.72;100.00;103007.22;4958330;28;20232;-47
2023/03/01 10:04:43;;;;;;;44.22;19.05;;;;;;;-0.73;100.00;103002.81;4960446;28;20177;-46
2023/03/01 10:07:29;;;;;;;32.35;20.00;;;;;;;-0.80;100.00;103009.53;4962198;28;20290;-47
2023/03/01 10:09:55;;;;;;;49.90;20.90;;;;;;;-0.92;100.00;103009.00;4959719;28;20174;-47
2023/03/01 10:12:27;;;;;;;45.92;22.33;;;;;;;-0.93;100.00;103002.84;4963885;28;20218;-46
2023/03/01 10:15:05;;;;;;;32.65;20.48;;;;;;;-0.62;100.00;103004.16;4966222;28;20182;-45
2023/03/01 10:17:39;;;;;;;29.73;19.88;;;;;;;-0.40;100.00;103012.97;4963485;28;20178;-46
2023/03/01 10:20:15;;;;;;;29.60;17.92;;;;;;;-0.22;100.00;103005.81;4962590;28;20661;-48
2023/03/01 10:22:41;;;;;;;29.60;18.85;;;;;;;-0.26;100.00;103001.28;4960031;28;20201;-47
2023/03/01 10:25:14;;;;;;;25.75;18.35;;;;;;;-0.19;100.00;102998.06;4960473;28;20190;-47
2023/03/01 10:27:53;;;;;;;26.73;18.75;;;;;;;-0.11;100.00;103003.63;4964886;28;20269;-46
2023/03/01 10:30:41;;;;;;;17.58;12.98;;;;;;;-0.39;100.00;103010.41;4958814;28;20198;-46
2023/03/01 10:33:18;;;;;;;20.58;12.82;;;;;;;-0.48;100.00;102997.75;4962029;28;20178;-46
2023/03/01 10:35:44;;;;;;;22.52;15.35;;;;;;;-0.37;100.00;103010.47;4956129;28;20194;-45
2023/03/01 10:38:13;;;;;;;16.55;12.63;;;;;;;-0.16;100.00;102995.56;4956483;28;20197;-46
2023/03/01 10:40:58;;;;;;;15.30;12.45;;;;;;;0.11;100.00;103002.75;4962094;28;20182;-46
2023/03/01 10:43:31;;;;;;;33.53;13.20;;;;;;;-0.02;100.00;103006.66;4958277;28;20218;-47
2023/03/01 10:45:57;;;;;;;21.35;12.88;;;;;;;0.14;100.00;103000.25;4958520;28;20273;-45
2023/03/01 10:48:26;;;;;;;15.05;12.43;;;;;;;0.33;100.00;103000.16;4964645;28;20729;-46
2023/03/01 10:50:57;;;;;;;26.80;14.02;;;;;;;0.31;100.00;102995.66;4958557;28;20177;-43
2023/03/01 10:53:33;;;;;;;19.58;13.90;;;;;;;0.25;100.00;102984.88;4965897;28;20178;-47
2023/03/01 10:56:10;;;;;;;16.02;12.75;;;;;;;0.44;100.00;102989.09;4963992;28;20767;-45
2023/03/01 10:58:39;;;;;;;19.33;13.90;;;;;;;0.35;100.00;102987.94;4960340;28;20194;-47
2023/03/01 11:01:23;;;;;;;20.85;13.77;;;;;;;0.26;100.00;102984.91;4961690;28;20210;-46
2023/03/01 11:04:07;;;;;;;17.42;13.18;;;;;;;0.44;100.00;102990.03;4961198;28;20564;-44
2023/03/01 11:06:37;;;;;;;17.75;12.38;;;;;;;0.48;100.00;102989.31;4961283;28;20201;-47
2023/03/01 11:09:17;;;;;;;16.75;12.60;;;;;;;0.50;100.00;102982.31;4964438;28;20174;-46